Flight Track Log - Related Links

Times and Time Zones

All times are in EDT time to prevent confusion due to time zone crossing. See the CTL18 flight status page for this flight to view local times or setup timezone preferences in your user account.

Time Position Orientation Groundspeed Altitude Reporting Facility
EDT Latitude Longitude Course Direction KTS MPH feet Rate Location/Type
Wed 18:59:08 42.6622 -83.4406 274° West 116 133 1,400  Level Cleveland Center
Wed 18:59:44 42.6636 -83.4689 274° West 112 129 2,000 980 Climbing Cleveland Center
Wed 19:00:46 42.6731 -83.5117 287° West 129 148 3,000 968 Climbing Cleveland Center
Wed 19:02:00 42.6988 -83.4641 54° Northeast  Level FlightAware
Wed 19:09:00 42.9385 -83.4090 321° Northwest  Level FlightAware
Wed 19:10:00 42.9659 -83.4391 321° Northwest  Level FlightAware
Wed 19:11:00 42.9933 -83.4693 321° Northwest  Level FlightAware
Wed 19:12:00 43.0207 -83.4995 321° Northwest  Level FlightAware
Wed 19:13:00 43.0481 -83.5297 321° Northwest  Level FlightAware
Wed 19:14:00 43.0754 -83.5600 321° Northwest  Level FlightAware
Wed 19:15:00 43.1028 -83.5902 321° Northwest  Level FlightAware
Wed 19:16:00 43.1301 -83.6206 321° Northwest  Level FlightAware
Wed 19:17:00 43.1575 -83.6509 321° Northwest  Level FlightAware
Wed 19:18:00 43.1848 -83.6813 321° Northwest  Level FlightAware
Wed 19:19:00 43.2122 -83.7116 321° Northwest  Level FlightAware
Wed 19:20:00 43.2386 -83.7434 318° Northwest  Level FlightAware
Wed 19:21:00 43.2649 -83.7755 318° Northwest  Level FlightAware
Wed 19:22:00 43.2912 -83.8076 318° Northwest  Level FlightAware
Wed 19:23:00 43.3175 -83.8398 318° Northwest  Level FlightAware
Wed 19:24:00 43.3438 -83.8719 318° Northwest  Level FlightAware
Wed 19:25:00 43.3703 -83.9036 324° Northwest  Level FlightAware
Wed 19:26:00 43.3988 -83.9321 324° Northwest  Level FlightAware
Wed 19:27:00 43.4273 -83.9605 324° Northwest  Level FlightAware
Wed 19:28:00 43.4557 -83.9890 324° Northwest  Level FlightAware
Wed 19:29:00 43.4842 -84.0175 324° Northwest  Level FlightAware

Login

Don't have an account? Register now (free) for customized features, flight alerts, and more!